Time;durP1;ratioP1;P1;durP2;ratioP2;P2;SDS_P1;SDS_P2;PMS_P1;PMS_P2;Temp;Humidity;BMP_temperature;BMP_pressure;BME280_temperature;BME280_humidity;BME280_pressure;Samples;Min_cycle;Max_cycle;Signal;HPM_P1;HPM_P2
2022/06/12 00:00:30;;;;;;;2.33;1.52;;;;;;;;;;1788827;78;26327;-83
2022/06/12 00:02:59;;;;;;;2.98;1.75;;;;;;;;;;1788738;78;26537;-83
2022/06/12 00:05:28;;;;;;;4.17;1.60;;;;;;;;;;1805098;78;26328;-83
2022/06/12 00:07:55;;;;;;;4.17;1.87;;;;;;;;;;1814449;78;26271;-82
2022/06/12 00:10:23;;;;;;;3.60;1.72;;;;;;;;;;1804183;78;26236;-83
2022/06/12 00:12:50;;;;;;;1.52;1.42;;;;;;;;;;1816781;78;26254;-83
2022/06/12 00:15:19;;;;;;;4.35;1.75;;;;;;;;;;1843452;78;26809;-83
2022/06/12 00:17:47;;;;;;;2.45;1.45;;;;;;;;;;1816158;78;26293;-83
2022/06/12 00:20:16;;;;;;;4.22;1.57;;;;;;;;;;1823016;78;26317;-83
2022/06/12 00:22:44;;;;;;;2.55;1.55;;;;;;;;;;1837039;78;26737;-83
2022/06/12 00:25:13;;;;;;;3.85;1.45;;;;;;;;;;1838442;78;26328;-82
2022/06/12 00:27:41;;;;;;;2.05;1.40;;;;;;;;;;1809954;78;26314;-83
2022/06/12 00:30:10;;;;;;;3.12;1.60;;;;;;;;;;1819494;78;26254;-82
2022/06/12 00:32:38;;;;;;;1.92;1.40;;;;;;;;;;1812308;78;26312;-83
2022/06/12 00:35:07;;;;;;;3.05;1.60;;;;;;;;;;1771186;79;26704;-83
2022/06/12 00:37:35;;;;;;;3.00;1.50;;;;;;;;;;1769075;79;26391;-83
2022/06/12 00:40:03;;;;;;;2.05;1.60;;;;;;;;;;1764300;79;26792;-83
2022/06/12 00:42:33;;;;;;;3.00;1.55;;;;;;;;;;1774389;79;26359;-83
2022/06/12 00:45:02;;;;;;;3.90;1.70;;;;;;;;;;1784684;79;26303;-83
2022/06/12 00:47:29;;;;;;;2.47;1.50;;;;;;;;;;1774418;80;26782;-83
2022/06/12 00:49:58;;;;;;;3.10;1.60;;;;;;;;;;1737344;81;26315;-82
2022/06/12 00:52:30;;;;;;;1.50;1.32;;;;;;;;;;1769345;79;26350;-82
2022/06/12 00:55:08;;;;;;;3.08;1.67;;;;;;;;;;1770719;79;26670;-83
2022/06/12 01:00:23;;;;;;;2.17;1.35;;;;;;;;;;1818016;77;26294;-54
2022/06/12 01:02:52;;;;;;;3.27;1.55;;;;;;;;;;1801960;78;26427;-54
2022/06/12 01:08:06;;;;;;;2.85;1.57;;;;;;;;;;1831286;75;50536;-89
2022/06/12 01:10:35;;;;;;;3.55;1.70;;;;;;;;;;1834638;76;26312;-89
2022/06/12 01:13:03;;;;;;;3.33;1.70;;;;;;;;;;1841302;76;26317;-90
2022/06/12 01:15:32;;;;;;;2.77;1.50;;;;;;;;;;1839753;76;26303;-91
2022/06/12 01:18:00;;;;;;;2.47;1.50;;;;;;;;;;1836463;76;26268;-91
2022/06/12 01:20:29;;;;;;;2.25;1.52;;;;;;;;;;1838972;78;26221;-91
2022/06/12 01:23:03;;;;;;;3.30;1.60;;;;;;;;;;1840517;77;26304;-91
2022/06/12 01:25:32;;;;;;;2.37;1.40;;;;;;;;;;1810287;77;26276;-90
2022/06/12 01:28:13;;;;;;;2.70;1.40;;;;;;;;;;1839063;77;26273;-90
2022/06/12 01:30:42;;;;;;;2.62;1.60;;;;;;;;;;1840054;76;26319;-91
2022/06/12 01:33:27;;;;;;;3.70;1.67;;;;;;;;;;1840114;77;26366;-90
2022/06/12 01:36:11;;;;;;;1.92;1.52;;;;;;;;;;1846419;76;26268;-91
2022/06/12 01:38:40;;;;;;;3.37;1.77;;;;;;;;;;1832245;77;26723;-90
2022/06/12 01:41:18;;;;;;;3.85;1.55;;;;;;;;;;1805720;76;26260;-90
2022/06/12 01:44:05;;;;;;;3.17;1.42;;;;;;;;;;1830548;76;26249;-90
2022/06/12 01:46:42;;;;;;;2.40;1.57;;;;;;;;;;1835253;78;26754;-89
2022/06/12 01:49:11;;;;;;;3.72;1.55;;;;;;;;;;1783482;79;26777;-89
2022/06/12 01:51:46;;;;;;;3.87;1.70;;;;;;;;;;1817640;76;26707;-89
2022/06/12 01:54:15;;;;;;;3.50;2.00;;;;;;;;;;1836609;78;26333;-90
2022/06/12 01:56:50;;;;;;;3.20;1.55;;;;;;;;;;1827390;76;26266;-89
2022/06/12 01:59:18;;;;;;;1.90;1.45;;;;;;;;;;1829077;78;26761;-90
2022/06/12 02:01:47;;;;;;;3.90;1.50;;;;;;;;;;1846391;76;26311;-89
2022/06/12 02:04:19;;;;;;;4.95;1.82;;;;;;;;;;1840261;76;26281;-90
2022/06/12 02:06:51;;;;;;;2.75;1.57;;;;;;;;;;1831531;78;26641;-89
2022/06/12 02:09:20;;;;;;;4.15;1.40;;;;;;;;;;1849871;77;26334;-90
2022/06/12 02:14:53;;;;;;;2.85;1.72;;;;;;;;;;1863104;77;26292;-89
2022/06/12 02:17:22;;;;;;;2.55;1.52;;;;;;;;;;1858401;75;26333;-88
2022/06/12 02:19:50;;;;;;;1.90;1.45;;;;;;;;;;1859597;77;26256;-90
2022/06/12 02:22:20;;;;;;;2.22;1.42;;;;;;;;;;1864457;77;26274;-90
2022/06/12 02:24:48;;;;;;;2.80;1.55;;;;;;;;;;1863825;77;26410;-90
2022/06/12 02:27:17;;;;;;;3.90;1.67;;;;;;;;;;1863560;76;26244;-89
2022/06/12 02:30:04;;;;;;;2.90;1.30;;;;;;;;;;1861550;75;26263;-90
2022/06/12 02:32:33;;;;;;;1.50;1.22;;;;;;;;;;1842960;77;26322;-89
2022/06/12 02:35:08;;;;;;;4.78;1.65;;;;;;;;;;1858504;77;26302;-90
2022/06/12 02:37:43;;;;;;;3.30;1.47;;;;;;;;;;1863589;77;26325;-89
2022/06/12 02:40:12;;;;;;;2.58;1.30;;;;;;;;;;1854878;76;26675;-89
2022/06/12 02:42:41;;;;;;;2.58;1.42;;;;;;;;;;1864358;77;26632;-90
2022/06/12 02:45:10;;;;;;;2.58;1.60;;;;;;;;;;1864457;77;26746;-89
2022/06/12 02:47:38;;;;;;;3.15;1.40;;;;;;;;;;1863455;77;26695;-90
2022/06/12 02:50:07;;;;;;;2.22;1.37;;;;;;;;;;1864511;77;26524;-89
2022/06/12 02:52:36;;;;;;;1.92;1.20;;;;;;;;;;1860296;77;26327;-90
2022/06/12 02:55:08;;;;;;;5.37;1.20;;;;;;;;;;1861943;77;26275;-89
2022/06/12 02:57:53;;;;;;;2.80;1.35;;;;;;;;;;1857733;77;26859;-90
2022/06/12 03:00:22;;;;;;;2.87;1.50;;;;;;;;;;1864513;77;26252;-89
2022/06/12 03:03:07;;;;;;;4.03;1.50;;;;;;;;;;1852821;77;26305;-90
2022/06/12 03:05:37;;;;;;;1.98;1.30;;;;;;;;;;1804713;78;26800;-90
2022/06/12 03:08:06;;;;;;;3.58;1.50;;;;;;;;;;1856408;77;26271;-89
2022/06/12 03:10:35;;;;;;;2.35;1.52;;;;;;;;;;1850186;77;26341;-90
2022/06/12 03:13:03;;;;;;;1.85;1.40;;;;;;;;;;1855329;75;26326;-90
2022/06/12 03:15:32;;;;;;;1.92;1.35;;;;;;;;;;1848383;75;25337;-89
2022/06/12 03:18:00;;;;;;;3.15;1.40;;;;;;;;;;1860575;75;26329;-89
2022/06/12 03:20:32;;;;;;;3.80;1.50;;;;;;;;;;1865972;77;26850;-89
2022/06/12 03:23:01;;;;;;;1.82;1.37;;;;;;;;;;1863640;75;26733;-87
2022/06/12 03:25:30;;;;;;;1.12;1.00;;;;;;;;;;1865015;75;26821;-88
2022/06/12 03:28:01;;;;;;;1.92;1.35;;;;;;;;;;1853608;75;26347;-88
2022/06/12 03:30:36;;;;;;;1.75;1.30;;;;;;;;;;1865403;76;26643;-89
2022/06/12 03:33:05;;;;;;;1.62;1.10;;;;;;;;;;1864746;77;26318;-90
2022/06/12 03:35:40;;;;;;;3.02;1.30;;;;;;;;;;1865408;77;26286;-89
2022/06/12 03:38:10;;;;;;;1.40;1.20;;;;;;;;;;1865302;76;26899;-89
2022/06/12 03:40:39;;;;;;;2.37;1.32;;;;;;;;;;1845070;76;26283;-90
2022/06/12 03:43:07;;;;;;;3.02;1.30;;;;;;;;;;1850567;75;26351;-90
2022/06/12 03:45:38;;;;;;;3.55;1.25;;;;;;;;;;1848731;76;26362;-90
2022/06/12 03:48:23;;;;;;;1.95;1.22;;;;;;;;;;1865072;77;26287;-89
2022/06/12 03:50:52;;;;;;;2.87;1.42;;;;;;;;;;1863705;77;26252;-89
2022/06/12 03:53:21;;;;;;;2.27;1.50;;;;;;;;;;1856577;75;26284;-90
2022/06/12 03:58:49;;;;;;;1.67;1.20;;;;;;;;;;1850898;75;26794;-90
2022/06/12 04:01:17;;;;;;;1.67;1.17;;;;;;;;;;1853240;77;26772;-90
2022/06/12 04:03:45;;;;;;;2.98;1.30;;;;;;;;;;1853727;75;26330;-89
2022/06/12 04:06:14;;;;;;;2.90;1.25;;;;;;;;;;1864625;75;26276;-90
2022/06/12 04:08:43;;;;;;;1.75;1.20;;;;;;;;;;1865841;77;26204;-89
2022/06/12 04:11:12;;;;;;;4.42;1.45;;;;;;;;;;1864800;76;26334;-90
2022/06/12 04:13:40;;;;;;;2.98;1.40;;;;;;;;;;1853876;76;26346;-90
2022/06/12 04:16:26;;;;;;;2.25;1.27;;;;;;;;;;1850799;76;26758;-89
2022/06/12 04:18:53;;;;;;;2.50;1.27;;;;;;;;;;1835796;76;26797;-90
2022/06/12 04:21:32;;;;;;;1.92;1.30;;;;;;;;;;1838211;76;26329;-90
2022/06/12 04:24:01;;;;;;;2.92;1.30;;;;;;;;;;1842948;77;26268;-93
2022/06/12 04:26:30;;;;;;;2.37;1.30;;;;;;;;;;1846044;77;26263;-91
2022/06/12 04:28:59;;;;;;;2.50;1.25;;;;;;;;;;1839918;76;26287;-89
2022/06/12 04:31:27;;;;;;;2.47;1.20;;;;;;;;;;1864538;77;26271;-89
2022/06/12 04:33:56;;;;;;;1.77;1.10;;;;;;;;;;1864327;76;26861;-91
2022/06/12 04:36:24;;;;;;;1.30;1.10;;;;;;;;;;1852156;77;26291;-90
2022/06/12 04:38:53;;;;;;;2.27;1.10;;;;;;;;;;1854333;76;26812;-89
2022/06/12 04:41:22;;;;;;;2.60;1.20;;;;;;;;;;1864343;76;26767;-90
2022/06/12 04:43:49;;;;;;;2.08;1.10;;;;;;;;;;1864276;76;26329;-90
2022/06/12 04:46:17;;;;;;;1.25;1.02;;;;;;;;;;1864602;76;26272;-90
2022/06/12 04:48:45;;;;;;;1.27;1.05;;;;;;;;;;1863723;76;26683;-90
2022/06/12 04:51:13;;;;;;;2.20;1.10;;;;;;;;;;1863466;77;26248;-91
2022/06/12 04:53:41;;;;;;;1.85;1.17;;;;;;;;;;1864221;77;26252;-90
2022/06/12 04:56:09;;;;;;;2.80;1.30;;;;;;;;;;1861715;76;26735;-91
2022/06/12 04:58:39;;;;;;;1.57;1.15;;;;;;;;;;1863864;77;26370;-90
2022/06/12 05:01:07;;;;;;;1.22;1.00;;;;;;;;;;1861283;77;26255;-90
2022/06/12 05:03:34;;;;;;;2.12;1.20;;;;;;;;;;1862294;77;26287;-91
2022/06/12 05:06:02;;;;;;;1.75;1.22;;;;;;;;;;1859655;77;26703;-90
2022/06/12 05:08:29;;;;;;;1.35;1.25;;;;;;;;;;1863476;77;26244;-89
2022/06/12 05:10:56;;;;;;;1.22;1.10;;;;;;;;;;1864870;76;26322;-91
2022/06/12 05:13:24;;;;;;;1.20;1.10;;;;;;;;;;1865179;77;26306;-89
2022/06/12 05:15:51;;;;;;;1.40;1.10;;;;;;;;;;1865257;77;26793;-90
2022/06/12 05:18:20;;;;;;;1.57;1.10;;;;;;;;;;1862459;75;26295;-90
2022/06/12 05:20:48;;;;;;;2.20;1.35;;;;;;;;;;1865030;77;26732;-89
2022/06/12 05:23:16;;;;;;;2.33;1.00;;;;;;;;;;1865000;75;26885;-90
2022/06/12 05:25:44;;;;;;;2.00;1.10;;;;;;;;;;1862705;76;26268;-91
2022/06/12 05:28:12;;;;;;;1.50;1.00;;;;;;;;;;1865916;77;26728;-91
2022/06/12 05:30:40;;;;;;;2.10;1.15;;;;;;;;;;1865979;77;26737;-90
2022/06/12 05:33:07;;;;;;;1.50;1.00;;;;;;;;;;1866164;77;27580;-88
2022/06/12 05:35:37;;;;;;;1.60;1.35;;;;;;;;;;1863110;75;26443;-89
2022/06/12 05:38:04;;;;;;;1.60;1.05;;;;;;;;;;1864953;77;26948;-88
2022/06/12 05:40:33;;;;;;;1.87;1.22;;;;;;;;;;1864318;77;26279;-88
2022/06/12 05:43:01;;;;;;;4.12;1.10;;;;;;;;;;1865744;77;26365;-88
2022/06/12 05:45:29;;;;;;;1.10;1.10;;;;;;;;;;1865864;75;26229;-87
2022/06/12 05:47:58;;;;;;;3.08;1.30;;;;;;;;;;1865873;77;26334;-90
2022/06/12 05:50:27;;;;;;;1.22;1.10;;;;;;;;;;1863837;76;26291;-87
2022/06/12 05:52:55;;;;;;;1.47;0.90;;;;;;;;;;1865847;77;26330;-88
2022/06/12 05:55:22;;;;;;;1.35;1.12;;;;;;;;;;1865668;77;26729;-88
2022/06/12 05:57:49;;;;;;;0.80;0.80;;;;;;;;;;1865714;77;26224;-88
2022/06/12 06:00:18;;;;;;;1.32;1.07;;;;;;;;;;1863447;77;26259;-88
2022/06/12 06:02:46;;;;;;;2.42;1.07;;;;;;;;;;1860193;75;26707;-88
2022/06/12 06:05:14;;;;;;;2.10;1.12;;;;;;;;;;1862884;77;26311;-89
2022/06/12 06:07:42;;;;;;;2.72;1.20;;;;;;;;;;1862395;77;26632;-90
2022/06/12 06:10:10;;;;;;;6.83;1.82;;;;;;;;;;1864713;77;26260;-91
2022/06/12 06:12:38;;;;;;;3.60;1.90;;;;;;;;;;1865593;77;26706;-88
2022/06/12 06:15:05;;;;;;;13.68;2.45;;;;;;;;;;1862932;77;26264;-88
2022/06/12 06:17:33;;;;;;;4.20;1.77;;;;;;;;;;1866808;77;26260;-88
2022/06/12 06:20:00;;;;;;;5.60;1.95;;;;;;;;;;1865882;77;26227;-89
2022/06/12 06:22:27;;;;;;;6.22;1.98;;;;;;;;;;1866070;76;26232;-87
2022/06/12 06:24:54;;;;;;;5.03;1.80;;;;;;;;;;1865226;77;26259;-88
2022/06/12 06:27:22;;;;;;;5.42;2.02;;;;;;;;;;1864476;77;26314;-87
2022/06/12 06:29:49;;;;;;;6.03;1.85;;;;;;;;;;1863492;77;27101;-88
2022/06/12 06:32:17;;;;;;;5.22;1.80;;;;;;;;;;1862440;77;26314;-89
2022/06/12 06:34:44;;;;;;;6.28;2.02;;;;;;;;;;1863641;77;26260;-90
2022/06/12 06:37:12;;;;;;;7.80;2.17;;;;;;;;;;1865669;77;26260;-89
2022/06/12 06:39:42;;;;;;;5.53;1.90;;;;;;;;;;1861230;77;26809;-89
2022/06/12 06:42:10;;;;;;;6.85;2.35;;;;;;;;;;1858562;77;26261;-88
2022/06/12 06:47:24;;;;;;;7.30;1.82;;;;;;;;;;1865928;77;26628;-89
2022/06/12 06:49:51;;;;;;;5.28;1.98;;;;;;;;;;1866158;77;26684;-90
2022/06/12 06:52:18;;;;;;;5.12;2.10;;;;;;;;;;1860438;75;26317;-89
2022/06/12 06:54:45;;;;;;;4.55;1.90;;;;;;;;;;1836507;77;26252;-91
2022/06/12 06:57:13;;;;;;;6.75;1.92;;;;;;;;;;1865866;77;26358;-90
2022/06/12 06:59:40;;;;;;;5.10;2.00;;;;;;;;;;1865720;77;27063;-90
2022/06/12 07:02:08;;;;;;;4.95;1.90;;;;;;;;;;1865388;75;26310;-89
2022/06/12 07:04:36;;;;;;;6.25;2.00;;;;;;;;;;1863558;75;26839;-89
2022/06/12 07:07:04;;;;;;;6.75;2.10;;;;;;;;;;1858836;77;26263;-88
2022/06/12 07:09:33;;;;;;;5.90;1.85;;;;;;;;;;1837293;77;26288;-88
2022/06/12 07:12:01;;;;;;;5.40;2.10;;;;;;;;;;1855121;76;26800;-90
2022/06/12 07:14:28;;;;;;;8.60;2.12;;;;;;;;;;1862909;77;26420;-90
2022/06/12 07:17:03;;;;;;;5.78;2.00;;;;;;;;;;1865359;77;26281;-89
2022/06/12 07:19:30;;;;;;;6.53;1.80;;;;;;;;;;1864954;76;26256;-90
2022/06/12 07:21:57;;;;;;;4.65;1.82;;;;;;;;;;1863088;77;26276;-89
2022/06/12 07:24:25;;;;;;;4.58;1.75;;;;;;;;;;1863574;77;26287;-90
2022/06/12 07:26:52;;;;;;;8.55;1.98;;;;;;;;;;1861014;77;26200;-90
2022/06/12 07:29:21;;;;;;;5.17;2.08;;;;;;;;;;1864708;77;26260;-91
2022/06/12 07:31:49;;;;;;;7.85;2.05;;;;;;;;;;1864610;77;26321;-91
2022/06/12 07:34:16;;;;;;;5.92;2.12;;;;;;;;;;1864752;77;26264;-89
2022/06/12 07:36:45;;;;;;;9.50;2.50;;;;;;;;;;1853634;77;26369;-91
2022/06/12 07:39:14;;;;;;;8.75;2.20;;;;;;;;;;1864794;76;26342;-88
2022/06/12 07:41:42;;;;;;;6.97;2.20;;;;;;;;;;1858050;77;26248;-93
2022/06/12 07:44:11;;;;;;;5.95;2.17;;;;;;;;;;1857590;77;26341;-92
2022/06/12 07:46:39;;;;;;;6.47;2.00;;;;;;;;;;1847076;77;26261;-92
2022/06/12 07:49:06;;;;;;;8.10;2.10;;;;;;;;;;1856430;76;26675;-92
2022/06/12 07:51:34;;;;;;;10.30;2.15;;;;;;;;;;1872934;76;26236;-92
2022/06/12 07:54:01;;;;;;;6.72;2.35;;;;;;;;;;1864430;77;26263;-93
2022/06/12 07:56:28;;;;;;;6.35;2.20;;;;;;;;;;1839137;77;26220;-91
2022/06/12 07:58:56;;;;;;;6.55;1.80;;;;;;;;;;1852928;77;26270;-94
2022/06/12 08:01:24;;;;;;;7.80;2.27;;;;;;;;;;1857732;77;26849;-92
2022/06/12 08:03:52;;;;;;;4.83;2.00;;;;;;;;;;1876546;74;50465;-53
2022/06/12 08:06:19;;;;;;;6.67;1.95;;;;;;;;;;1876824;75;26230;-50
2022/06/12 08:08:47;;;;;;;5.58;2.05;;;;;;;;;;1870198;75;26715;-52
2022/06/12 08:11:15;;;;;;;7.72;2.20;;;;;;;;;;1866616;76;26281;-48
2022/06/12 08:13:42;;;;;;;7.20;2.30;;;;;;;;;;1842946;78;26701;-51
2022/06/12 08:16:10;;;;;;;5.58;2.10;;;;;;;;;;1843805;76;26616;-48
2022/06/12 08:18:37;;;;;;;5.75;1.90;;;;;;;;;;1842480;78;26716;-49
2022/06/12 08:21:06;;;;;;;6.35;2.40;;;;;;;;;;1844299;77;26246;-48
2022/06/12 08:23:38;;;;;;;8.78;2.15;;;;;;;;;;1843723;78;26246;-54
2022/06/12 08:26:07;;;;;;;7.72;2.45;;;;;;;;;;1826068;78;26257;-48
2022/06/12 08:28:36;;;;;;;5.78;2.30;;;;;;;;;;1844487;77;26218;-48
2022/06/12 08:31:05;;;;;;;7.22;2.20;;;;;;;;;;1835287;78;26249;-52
2022/06/12 08:33:32;;;;;;;6.22;2.00;;;;;;;;;;1830127;78;26257;-54
2022/06/12 08:36:00;;;;;;;7.03;1.95;;;;;;;;;;1837888;77;25985;-52
2022/06/12 08:38:27;;;;;;;5.80;2.42;;;;;;;;;;1831829;78;26337;-50
2022/06/12 08:41:02;;;;;;;5.45;2.10;;;;;;;;;;1844013;77;26258;-49
2022/06/12 08:43:34;;;;;;;6.33;1.80;;;;;;;;;;1833719;77;26248;-51
2022/06/12 08:46:03;;;;;;;4.45;2.15;;;;;;;;;;1831585;77;26284;-48
2022/06/12 08:48:35;;;;;;;4.00;1.85;;;;;;;;;;1838918;78;26346;-48
2022/06/12 08:51:07;;;;;;;6.80;2.45;;;;;;;;;;1829127;78;26280;-52
2022/06/12 08:53:36;;;;;;;3.08;1.62;;;;;;;;;;1830294;78;26316;-54
2022/06/12 08:56:05;;;;;;;3.50;1.72;;;;;;;;;;1824641;77;26782;-47
2022/06/12 08:58:41;;;;;;;3.17;1.62;;;;;;;;;;1826560;78;26288;-51
2022/06/12 09:01:09;;;;;;;4.45;1.77;;;;;;;;;;1840436;78;26318;-48
2022/06/12 09:03:38;;;;;;;5.40;1.80;;;;;;;;;;1844895;78;26638;-47
2022/06/12 09:06:10;;;;;;;3.92;1.62;;;;;;;;;;1835715;78;26704;-48
2022/06/12 09:08:51;;;;;;;4.72;1.60;;;;;;;;;;1843806;78;26254;-48
2022/06/12 09:11:22;;;;;;;3.50;1.70;;;;;;;;;;1836478;76;26738;-52
2022/06/12 09:13:51;;;;;;;4.85;1.70;;;;;;;;;;1839169;78;25715;-47
2022/06/12 09:16:35;;;;;;;3.70;1.70;;;;;;;;;;1839283;78;26752;-50
2022/06/12 09:19:20;;;;;;;3.62;1.75;;;;;;;;;;1836194;78;26246;-50
2022/06/12 09:21:52;;;;;;;3.87;1.55;;;;;;;;;;1835986;77;27626;-48
2022/06/12 09:24:21;;;;;;;4.92;1.90;;;;;;;;;;1845077;76;26258;-47
2022/06/12 09:26:53;;;;;;;3.83;1.50;;;;;;;;;;1845521;77;26254;-49
2022/06/12 09:29:38;;;;;;;2.22;1.45;;;;;;;;;;1846716;78;26713;-47
2022/06/12 09:32:10;;;;;;;3.12;1.57;;;;;;;;;;1845682;77;26912;-53
2022/06/12 09:34:55;;;;;;;3.00;1.85;;;;;;;;;;1818992;77;26252;-50
2022/06/12 09:40:26;;;;;;;2.45;1.45;;;;;;;;;;1842803;78;26357;-51
2022/06/12 09:42:57;;;;;;;2.12;1.50;;;;;;;;;;1845438;78;26266;-48
2022/06/12 09:45:26;;;;;;;2.70;1.60;;;;;;;;;;1846632;78;26266;-46
2022/06/12 09:47:55;;;;;;;4.05;1.85;;;;;;;;;;1845950;78;26798;-51
2022/06/12 09:50:43;;;;;;;7.75;1.65;;;;;;;;;;1843619;77;26651;-49
2022/06/12 09:53:11;;;;;;;3.87;1.50;;;;;;;;;;1845934;77;26317;-47
2022/06/12 09:55:40;;;;;;;2.55;1.57;;;;;;;;;;1844455;78;26254;-51
2022/06/12 09:58:19;;;;;;;3.02;1.70;;;;;;;;;;1844104;78;26258;-48
2022/06/12 10:00:54;;;;;;;4.22;1.62;;;;;;;;;;1844830;77;26356;-53
2022/06/12 10:03:41;;;;;;;3.08;1.40;;;;;;;;;;1829238;78;26794;-46
2022/06/12 10:06:21;;;;;;;3.95;1.70;;;;;;;;;;1843047;76;26279;-48
2022/06/12 10:08:51;;;;;;;2.45;1.50;;;;;;;;;;1837128;78;26214;-50
2022/06/12 10:11:20;;;;;;;3.47;1.72;;;;;;;;;;1843121;76;26341;-47
2022/06/12 10:13:49;;;;;;;1.87;1.45;;;;;;;;;;1842591;76;26297;-51
2022/06/12 10:16:18;;;;;;;3.83;1.30;;;;;;;;;;1834752;78;26761;-49
2022/06/12 10:18:47;;;;;;;6.15;1.52;;;;;;;;;;1829412;77;27507;-51
2022/06/12 10:21:15;;;;;;;7.72;1.82;;;;;;;;;;1842792;78;26255;-49
2022/06/12 10:23:43;;;;;;;6.10;1.80;;;;;;;;;;1843285;78;25911;-50
2022/06/12 10:26:18;;;;;;;3.95;1.80;;;;;;;;;;1837800;76;26727;-46
2022/06/12 10:28:45;;;;;;;7.28;1.60;;;;;;;;;;1843982;76;26316;-45
2022/06/12 10:31:14;;;;;;;4.12;1.20;;;;;;;;;;1842168;76;26188;-46
2022/06/12 10:33:56;;;;;;;7.22;1.70;;;;;;;;;;1834054;78;26261;-49
2022/06/12 10:36:31;;;;;;;14.90;2.08;;;;;;;;;;1830485;78;26309;-45
2022/06/12 10:39:05;;;;;;;5.25;1.50;;;;;;;;;;1835881;78;26270;-46
2022/06/12 10:41:33;;;;;;;6.75;1.60;;;;;;;;;;1841246;78;26254;-47
2022/06/12 10:44:00;;;;;;;6.45;1.52;;;;;;;;;;1843452;76;27355;-46
2022/06/12 10:46:30;;;;;;;5.97;1.77;;;;;;;;;;1843466;78;26745;-49
2022/06/12 10:49:08;;;;;;;3.85;1.50;;;;;;;;;;1841515;78;26273;-51
2022/06/12 10:51:37;;;;;;;4.05;1.32;;;;;;;;;;1827098;78;26195;-51
2022/06/12 10:54:12;;;;;;;5.58;1.98;;;;;;;;;;1842043;78;26255;-49
2022/06/12 10:56:40;;;;;;;2.87;1.40;;;;;;;;;;1840226;78;26512;-49
2022/06/12 10:59:09;;;;;;;3.98;1.32;;;;;;;;;;1841944;78;26250;-52
2022/06/12 11:01:38;;;;;;;4.10;1.70;;;;;;;;;;1834984;78;26283;-52
2022/06/12 11:04:10;;;;;;;3.12;1.35;;;;;;;;;;1836711;78;26255;-51
2022/06/12 11:06:41;;;;;;;5.25;1.50;;;;;;;;;;1845350;76;26801;-48
2022/06/12 11:09:13;;;;;;;5.80;1.32;;;;;;;;;;1843722;77;26270;-47
2022/06/12 11:11:48;;;;;;;3.37;1.47;;;;;;;;;;1839761;76;26238;-48
2022/06/12 11:14:17;;;;;;;4.90;1.52;;;;;;;;;;1843310;77;26190;-47
2022/06/12 11:16:45;;;;;;;4.30;1.30;;;;;;;;;;1831514;78;26249;-48
2022/06/12 11:19:14;;;;;;;2.72;1.40;;;;;;;;;;1841534;78;26735;-46
2022/06/12 11:21:49;;;;;;;3.17;1.30;;;;;;;;;;1844960;77;26829;-45
2022/06/12 11:24:20;;;;;;;1.22;1.10;;;;;;;;;;1835083;78;26315;-49
2022/06/12 11:27:01;;;;;;;2.65;1.20;;;;;;;;;;1838060;78;26295;-47
2022/06/12 11:29:36;;;;;;;2.77;1.20;;;;;;;;;;1845551;78;26234;-51
2022/06/12 11:32:06;;;;;;;1.40;1.30;;;;;;;;;;1843245;77;26266;-49
2022/06/12 11:34:38;;;;;;;2.15;1.30;;;;;;;;;;1841325;78;26302;-46
2022/06/12 11:37:16;;;;;;;1.35;1.15;;;;;;;;;;1842424;76;26261;-46
2022/06/12 11:40:02;;;;;;;2.67;1.40;;;;;;;;;;1846602;76;26188;-48
2022/06/12 11:42:39;;;;;;;2.85;1.20;;;;;;;;;;1856052;76;26729;-46
2022/06/12 11:45:08;;;;;;;2.05;1.27;;;;;;;;;;1845116;77;26250;-47
2022/06/12 11:47:37;;;;;;;2.55;1.22;;;;;;;;;;1842987;77;26258;-46
2022/06/12 11:50:17;;;;;;;1.85;1.30;;;;;;;;;;1843229;76;26304;-46
2022/06/12 11:52:52;;;;;;;2.08;1.32;;;;;;;;;;1844841;78;26718;-48
2022/06/12 11:55:21;;;;;;;1.17;1.10;;;;;;;;;;1846401;76;26266;-46
2022/06/12 11:57:50;;;;;;;1.30;1.00;;;;;;;;;;1845437;76;26203;-46
2022/06/12 12:00:19;;;;;;;1.72;1.10;;;;;;;;;;1847831;76;26750;-47
2022/06/12 12:02:48;;;;;;;1.98;1.20;;;;;;;;;;1840580;76;26192;-46
2022/06/12 12:05:16;;;;;;;1.27;1.17;;;;;;;;;;1835998;76;26278;-46
2022/06/12 12:07:48;;;;;;;2.30;1.25;;;;;;;;;;1839805;78;26250;-46
2022/06/12 12:10:20;;;;;;;1.42;1.10;;;;;;;;;;1840605;78;26233;-49
2022/06/12 12:12:48;;;;;;;1.37;1.15;;;;;;;;;;1846556;76;26344;-47
2022/06/12 12:15:20;;;;;;;1.00;1.00;;;;;;;;;;1844509;78;26299;-46
2022/06/12 12:17:49;;;;;;;1.42;1.30;;;;;;;;;;1844581;78;26199;-46
2022/06/12 12:20:21;;;;;;;1.42;1.07;;;;;;;;;;1842380;77;26324;-48
2022/06/12 12:22:52;;;;;;;1.17;1.00;;;;;;;;;;1836380;76;26205;-47
2022/06/12 12:25:34;;;;;;;1.20;1.07;;;;;;;;;;1841716;78;26306;-47
2022/06/12 12:28:05;;;;;;;2.50;1.10;;;;;;;;;;1846428;78;26795;-47
2022/06/12 12:30:34;;;;;;;1.10;1.10;;;;;;;;;;1842887;78;26308;-46
2022/06/12 12:33:03;;;;;;;1.20;0.90;;;;;;;;;;1846134;78;26847;-46
2022/06/12 12:41:12;;;;;;;2.92;1.15;;;;;;;;;;1834706;78;26372;-46
2022/06/12 12:43:56;;;;;;;1.27;1.02;;;;;;;;;;1846545;78;26324;-46
2022/06/12 12:46:25;;;;;;;1.15;1.10;;;;;;;;;;1844355;78;26335;-45
2022/06/12 12:48:55;;;;;;;1.60;1.37;;;;;;;;;;1845701;76;26265;-45
2022/06/12 12:51:24;;;;;;;1.00;1.00;;;;;;;;;;1843924;78;26277;-46
2022/06/12 12:53:56;;;;;;;1.20;1.00;;;;;;;;;;1842124;77;26687;-46
2022/06/12 12:56:31;;;;;;;1.40;1.10;;;;;;;;;;1839497;77;26329;-46
2022/06/12 12:59:02;;;;;;;2.00;1.12;;;;;;;;;;1845560;78;26273;-50
2022/06/12 13:01:43;;;;;;;1.52;0.90;;;;;;;;;;1841034;77;26289;-45
2022/06/12 13:04:15;;;;;;;0.93;0.90;;;;;;;;;;1845407;77;26313;-45
2022/06/12 13:06:50;;;;;;;1.20;1.15;;;;;;;;;;1833326;77;26358;-49
2022/06/12 13:09:28;;;;;;;1.00;1.00;;;;;;;;;;1854535;75;26317;-47
2022/06/12 13:12:01;;;;;;;1.30;1.20;;;;;;;;;;1865879;76;26340;-46
2022/06/12 13:14:29;;;;;;;0.93;0.90;;;;;;;;;;1873557;76;26305;-45
2022/06/12 13:16:58;;;;;;;1.80;1.00;;;;;;;;;;1875377;76;26319;-45
2022/06/12 13:19:42;;;;;;;1.30;1.02;;;;;;;;;;1878202;76;26270;-46
2022/06/12 13:22:14;;;;;;;0.90;0.90;;;;;;;;;;1870766;76;26361;-46
2022/06/12 13:24:43;;;;;;;0.90;0.90;;;;;;;;;;1869144;76;26755;-45
2022/06/12 13:27:12;;;;;;;1.67;1.00;;;;;;;;;;1885356;75;26691;-46
2022/06/12 13:29:43;;;;;;;1.10;1.02;;;;;;;;;;1863474;75;26295;-46
2022/06/12 13:32:12;;;;;;;1.40;1.05;;;;;;;;;;1887524;75;26299;-47
2022/06/12 13:34:40;;;;;;;1.02;1.00;;;;;;;;;;1879752;75;26241;-50
2022/06/12 13:37:09;;;;;;;0.80;0.80;;;;;;;;;;1858993;77;26246;-46
2022/06/12 13:39:37;;;;;;;1.07;0.98;;;;;;;;;;1880551;75;26253;-47
2022/06/12 13:42:09;;;;;;;0.88;0.88;;;;;;;;;;1884685;75;26907;-46
2022/06/12 13:44:38;;;;;;;0.85;0.85;;;;;;;;;;1831549;76;26241;-48
2022/06/12 13:47:22;;;;;;;1.02;0.93;;;;;;;;;;1844580;77;26268;-46
2022/06/12 13:49:54;;;;;;;1.02;1.02;;;;;;;;;;1880622;75;26315;-48
2022/06/12 13:52:23;;;;;;;0.90;0.90;;;;;;;;;;1879883;75;26327;-47
2022/06/12 13:54:50;;;;;;;1.15;1.07;;;;;;;;;;1864622;76;26398;-46
2022/06/12 13:57:19;;;;;;;1.22;1.05;;;;;;;;;;1902887;75;26230;-47
2022/06/12 13:59:47;;;;;;;1.00;0.90;;;;;;;;;;1882792;75;26204;-46
2022/06/12 14:02:18;;;;;;;2.45;0.98;;;;;;;;;;1880962;75;26240;-46
2022/06/12 14:04:50;;;;;;;0.95;0.95;;;;;;;;;;1894019;75;26254;-46
2022/06/12 14:07:17;;;;;;;0.80;0.80;;;;;;;;;;1888397;75;26590;-46
2022/06/12 14:09:45;;;;;;;1.12;1.00;;;;;;;;;;1873855;75;26181;-50
2022/06/12 14:12:13;;;;;;;1.00;0.90;;;;;;;;;;1855712;77;26282;-46
2022/06/12 14:14:45;;;;;;;1.10;1.00;;;;;;;;;;1881129;75;26249;-47
2022/06/12 14:17:19;;;;;;;1.02;1.00;;;;;;;;;;1876275;75;26587;-49
2022/06/12 14:19:57;;;;;;;1.10;1.00;;;;;;;;;;1881566;75;26644;-47
2022/06/12 14:22:25;;;;;;;0.80;0.80;;;;;;;;;;1878169;75;26318;-46
2022/06/12 14:25:03;;;;;;;1.10;1.00;;;;;;;;;;1881810;75;26290;-46
2022/06/12 14:27:34;;;;;;;0.85;0.82;;;;;;;;;;1866952;75;26253;-46
2022/06/12 14:30:02;;;;;;;1.05;0.98;;;;;;;;;;1880038;76;26782;-48
2022/06/12 14:32:30;;;;;;;1.02;0.80;;;;;;;;;;1882105;75;26180;-46
2022/06/12 14:35:05;;;;;;;1.92;1.00;;;;;;;;;;1876183;75;26258;-46
2022/06/12 14:37:35;;;;;;;1.37;0.93;;;;;;;;;;1879955;75;26246;-46
2022/06/12 14:40:04;;;;;;;1.10;1.00;;;;;;;;;;1886511;75;26776;-49
2022/06/12 14:42:31;;;;;;;0.80;0.80;;;;;;;;;;1845581;76;26756;-46
2022/06/12 14:44:58;;;;;;;1.40;0.80;;;;;;;;;;1881688;76;26254;-46
2022/06/12 14:47:34;;;;;;;0.82;0.82;;;;;;;;;;1881472;76;26256;-46
2022/06/12 14:49:59;;;;;;;0.82;0.82;;;;;;;;;;1889554;75;26302;-49
2022/06/12 14:52:30;;;;;;;0.80;0.80;;;;;;;;;;1894683;75;26256;-45
2022/06/12 14:54:58;;;;;;;0.70;0.70;;;;;;;;;;1846842;76;26245;-47
2022/06/12 14:57:27;;;;;;;0.70;0.70;;;;;;;;;;1869371;76;26363;-46
2022/06/12 14:59:55;;;;;;;0.80;0.80;;;;;;;;;;1887528;75;26254;-48
2022/06/12 15:02:24;;;;;;;0.82;0.82;;;;;;;;;;1893797;75;26272;-50
2022/06/12 15:04:51;;;;;;;0.80;0.80;;;;;;;;;;1885008;75;26193;-51
2022/06/12 15:07:18;;;;;;;1.62;0.68;;;;;;;;;;1860859;75;26363;-53
2022/06/12 15:09:46;;;;;;;0.80;0.80;;;;;;;;;;1874217;75;26333;-53
2022/06/12 15:12:14;;;;;;;0.72;0.72;;;;;;;;;;1879596;75;26285;-53
2022/06/12 15:14:42;;;;;;;1.15;0.88;;;;;;;;;;1887147;75;26848;-51
2022/06/12 15:17:13;;;;;;;0.90;0.90;;;;;;;;;;1885865;75;26654;-49
2022/06/12 15:19:40;;;;;;;0.90;0.90;;;;;;;;;;1899124;75;26657;-48
2022/06/12 15:22:09;;;;;;;0.80;0.80;;;;;;;;;;1872607;75;26769;-49
2022/06/12 15:24:36;;;;;;;0.80;0.80;;;;;;;;;;1846895;75;26652;-47